sensor_id;sensor_type;location;lat;lon;timestamp;P1;durP1;ratioP1;P2;durP2;ratioP2
42714;SDS011;28351;51.480;5.706;2022-09-13T00:02:01;11.25;;;7.28;;
42714;SDS011;28351;51.480;5.706;2022-09-13T00:04:27;12.90;;;7.60;;
42714;SDS011;28351;51.480;5.706;2022-09-13T00:06:52;10.60;;;7.38;;
42714;SDS011;28351;51.480;5.706;2022-09-13T00:09:18;11.45;;;8.23;;
42714;SDS011;28351;51.480;5.706;2022-09-13T00:11:43;11.02;;;7.68;;
42714;SDS011;28351;51.480;5.706;2022-09-13T00:14:09;13.70;;;7.70;;
42714;SDS011;28351;51.480;5.706;2022-09-13T00:16:35;11.80;;;7.38;;
42714;SDS011;28351;51.480;5.706;2022-09-13T00:19:01;12.70;;;7.25;;
42714;SDS011;28351;51.480;5.706;2022-09-13T00:21:26;9.55;;;7.43;;
42714;SDS011;28351;51.480;5.706;2022-09-13T00:23:53;10.02;;;7.00;;
42714;SDS011;28351;51.480;5.706;2022-09-13T00:26:20;11.35;;;7.05;;
42714;SDS011;28351;51.480;5.706;2022-09-13T00:28:48;9.75;;;6.97;;
42714;SDS011;28351;51.480;5.706;2022-09-13T00:31:15;11.70;;;7.50;;
42714;SDS011;28351;51.480;5.706;2022-09-13T00:33:41;12.70;;;7.30;;
42714;SDS011;28351;51.480;5.706;2022-09-13T00:36:08;8.65;;;6.50;;
42714;SDS011;28351;51.480;5.706;2022-09-13T00:38:35;8.35;;;6.22;;
42714;SDS011;28351;51.480;5.706;2022-09-13T00:41:06;8.02;;;6.53;;
42714;SDS011;28351;51.480;5.706;2022-09-13T00:43:53;11.98;;;6.80;;
42714;SDS011;28351;51.480;5.706;2022-09-13T00:46:23;11.48;;;6.55;;
42714;SDS011;28351;51.480;5.706;2022-09-13T00:49:41;7.13;;;5.57;;
42714;SDS011;28351;51.480;5.706;2022-09-13T00:51:57;10.23;;;6.03;;
42714;SDS011;28351;51.480;5.706;2022-09-13T00:54:26;8.98;;;5.88;;
42714;SDS011;28351;51.480;5.706;2022-09-13T00:56:57;9.35;;;6.90;;
42714;SDS011;28351;51.480;5.706;2022-09-13T00:59:33;9.25;;;5.47;;
42714;SDS011;28351;51.480;5.706;2022-09-13T01:02:04;7.43;;;5.63;;
42714;SDS011;28351;51.480;5.706;2022-09-13T01:04:30;8.77;;;6.07;;
42714;SDS011;28351;51.480;5.706;2022-09-13T01:07:03;8.77;;;5.65;;
42714;SDS011;28351;51.480;5.706;2022-09-13T01:09:34;12.85;;;6.07;;
42714;SDS011;28351;51.480;5.706;2022-09-13T01:12:05;8.27;;;6.18;;
42714;SDS011;28351;51.480;5.706;2022-09-13T01:14:38;7.65;;;5.85;;
42714;SDS011;28351;51.480;5.706;2022-09-13T01:17:04;11.73;;;5.43;;
42714;SDS011;28351;51.480;5.706;2022-09-13T01:19:30;8.43;;;5.70;;
42714;SDS011;28351;51.480;5.706;2022-09-13T01:25:09;8.05;;;5.65;;
42714;SDS011;28351;51.480;5.706;2022-09-13T01:30:47;7.70;;;6.43;;
42714;SDS011;28351;51.480;5.706;2022-09-13T01:39:17;7.82;;;5.53;;
42714;SDS011;28351;51.480;5.706;2022-09-13T01:42:01;7.60;;;5.45;;
42714;SDS011;28351;51.480;5.706;2022-09-13T01:55:10;6.18;;;5.43;;
42714;SDS011;28351;51.480;5.706;2022-09-13T01:57:52;6.28;;;5.20;;
42714;SDS011;28351;51.480;5.706;2022-09-13T02:00:34;7.30;;;5.07;;
42714;SDS011;28351;51.480;5.706;2022-09-13T02:03:08;6.85;;;4.80;;
42714;SDS011;28351;51.480;5.706;2022-09-13T02:11:19;5.93;;;4.97;;
42714;SDS011;28351;51.480;5.706;2022-09-13T02:13:50;5.88;;;4.55;;
42714;SDS011;28351;51.480;5.706;2022-09-13T02:16:47;6.20;;;4.63;;
42714;SDS011;28351;51.480;5.706;2022-09-13T02:19:29;6.50;;;4.85;;
42714;SDS011;28351;51.480;5.706;2022-09-13T02:22:07;6.72;;;4.72;;
42714;SDS011;28351;51.480;5.706;2022-09-13T02:24:41;8.25;;;5.32;;
42714;SDS011;28351;51.480;5.706;2022-09-13T02:27:13;5.78;;;5.03;;
42714;SDS011;28351;51.480;5.706;2022-09-13T02:29:43;7.32;;;4.80;;
42714;SDS011;28351;51.480;5.706;2022-09-13T02:34:44;7.63;;;4.95;;
42714;SDS011;28351;51.480;5.706;2022-09-13T02:37:21;8.15;;;5.13;;
42714;SDS011;28351;51.480;5.706;2022-09-13T02:39:52;6.55;;;5.60;;
42714;SDS011;28351;51.480;5.706;2022-09-13T02:42:25;8.10;;;5.07;;
42714;SDS011;28351;51.480;5.706;2022-09-13T02:45:00;8.00;;;5.45;;
42714;SDS011;28351;51.480;5.706;2022-09-13T02:55:38;6.88;;;5.55;;
42714;SDS011;28351;51.480;5.706;2022-09-13T02:58:29;8.80;;;6.10;;
42714;SDS011;28351;51.480;5.706;2022-09-13T03:01:05;7.85;;;5.65;;
42714;SDS011;28351;51.480;5.706;2022-09-13T03:03:31;8.23;;;5.68;;
42714;SDS011;28351;51.480;5.706;2022-09-13T03:05:56;9.45;;;6.18;;
42714;SDS011;28351;51.480;5.706;2022-09-13T03:08:22;7.85;;;5.63;;
42714;SDS011;28351;51.480;5.706;2022-09-13T03:10:53;8.63;;;5.97;;
42714;SDS011;28351;51.480;5.706;2022-09-13T03:13:41;8.30;;;5.82;;
42714;SDS011;28351;51.480;5.706;2022-09-13T03:16:35;8.25;;;5.90;;
42714;SDS011;28351;51.480;5.706;2022-09-13T03:19:54;8.35;;;6.55;;
42714;SDS011;28351;51.480;5.706;2022-09-13T03:30:14;7.32;;;5.82;;
42714;SDS011;28351;51.480;5.706;2022-09-13T03:38:12;8.10;;;5.93;;
42714;SDS011;28351;51.480;5.706;2022-09-13T03:43:24;11.90;;;6.25;;
42714;SDS011;28351;51.480;5.706;2022-09-13T03:47:01;7.10;;;5.85;;
42714;SDS011;28351;51.480;5.706;2022-09-13T03:49:13;12.15;;;6.07;;
42714;SDS011;28351;51.480;5.706;2022-09-13T03:51:42;6.85;;;5.55;;
42714;SDS011;28351;51.480;5.706;2022-09-13T03:54:19;8.18;;;6.30;;
42714;SDS011;28351;51.480;5.706;2022-09-13T03:59:35;7.60;;;6.25;;
42714;SDS011;28351;51.480;5.706;2022-09-13T04:02:03;7.68;;;5.88;;
42714;SDS011;28351;51.480;5.706;2022-09-13T04:04:31;9.65;;;5.68;;
42714;SDS011;28351;51.480;5.706;2022-09-13T04:06:57;8.40;;;6.05;;
42714;SDS011;28351;51.480;5.706;2022-09-13T04:09:27;10.40;;;6.78;;
42714;SDS011;28351;51.480;5.706;2022-09-13T04:11:52;8.75;;;6.30;;
42714;SDS011;28351;51.480;5.706;2022-09-13T04:14:19;9.65;;;7.05;;
42714;SDS011;28351;51.480;5.706;2022-09-13T04:16:45;7.53;;;6.18;;
42714;SDS011;28351;51.480;5.706;2022-09-13T04:19:10;9.77;;;6.50;;
42714;SDS011;28351;51.480;5.706;2022-09-13T04:21:37;9.00;;;6.00;;
42714;SDS011;28351;51.480;5.706;2022-09-13T04:24:03;9.50;;;6.50;;
42714;SDS011;28351;51.480;5.706;2022-09-13T04:26:28;9.27;;;6.45;;
42714;SDS011;28351;51.480;5.706;2022-09-13T04:28:54;9.23;;;6.70;;
42714;SDS011;28351;51.480;5.706;2022-09-13T04:31:20;9.50;;;6.50;;
42714;SDS011;28351;51.480;5.706;2022-09-13T04:33:45;7.13;;;5.32;;
42714;SDS011;28351;51.480;5.706;2022-09-13T04:36:11;8.52;;;6.32;;
42714;SDS011;28351;51.480;5.706;2022-09-13T04:38:36;8.40;;;5.93;;
42714;SDS011;28351;51.480;5.706;2022-09-13T04:41:02;8.77;;;6.35;;
42714;SDS011;28351;51.480;5.706;2022-09-13T04:43:27;9.05;;;6.50;;
42714;SDS011;28351;51.480;5.706;2022-09-13T04:45:53;7.82;;;6.18;;
42714;SDS011;28351;51.480;5.706;2022-09-13T04:48:23;9.63;;;6.30;;
42714;SDS011;28351;51.480;5.706;2022-09-13T04:50:48;9.57;;;6.45;;
42714;SDS011;28351;51.480;5.706;2022-09-13T04:53:14;7.40;;;6.03;;
42714;SDS011;28351;51.480;5.706;2022-09-13T04:55:40;7.63;;;5.70;;
42714;SDS011;28351;51.480;5.706;2022-09-13T04:58:05;9.80;;;6.85;;
42714;SDS011;28351;51.480;5.706;2022-09-13T05:00:31;8.35;;;6.80;;
42714;SDS011;28351;51.480;5.706;2022-09-13T05:02:57;10.95;;;6.68;;
42714;SDS011;28351;51.480;5.706;2022-09-13T05:05:23;9.57;;;6.63;;
42714;SDS011;28351;51.480;5.706;2022-09-13T05:07:53;13.80;;;6.65;;
42714;SDS011;28351;51.480;5.706;2022-09-13T05:10:19;13.80;;;6.63;;
42714;SDS011;28351;51.480;5.706;2022-09-13T05:12:44;8.02;;;6.15;;
42714;SDS011;28351;51.480;5.706;2022-09-13T05:15:10;8.95;;;6.07;;
42714;SDS011;28351;51.480;5.706;2022-09-13T05:17:36;10.75;;;6.93;;
42714;SDS011;28351;51.480;5.706;2022-09-13T05:20:02;10.75;;;7.18;;
42714;SDS011;28351;51.480;5.706;2022-09-13T05:22:29;10.07;;;6.32;;
42714;SDS011;28351;51.480;5.706;2022-09-13T05:24:55;11.07;;;7.18;;
42714;SDS011;28351;51.480;5.706;2022-09-13T05:27:21;11.57;;;7.40;;
42714;SDS011;28351;51.480;5.706;2022-09-13T05:29:46;9.73;;;7.13;;
42714;SDS011;28351;51.480;5.706;2022-09-13T05:32:12;8.75;;;6.30;;
42714;SDS011;28351;51.480;5.706;2022-09-13T05:34:37;10.60;;;7.38;;
42714;SDS011;28351;51.480;5.706;2022-09-13T05:37:03;10.55;;;7.05;;
42714;SDS011;28351;51.480;5.706;2022-09-13T05:39:29;11.82;;;6.30;;
42714;SDS011;28351;51.480;5.706;2022-09-13T05:41:54;8.15;;;6.28;;
42714;SDS011;28351;51.480;5.706;2022-09-13T05:44:20;8.25;;;5.70;;
42714;SDS011;28351;51.480;5.706;2022-09-13T05:46:46;5.97;;;4.82;;
42714;SDS011;28351;51.480;5.706;2022-09-13T05:49:12;8.98;;;5.18;;
42714;SDS011;28351;51.480;5.706;2022-09-13T05:51:38;8.93;;;5.13;;
42714;SDS011;28351;51.480;5.706;2022-09-13T05:54:04;8.40;;;5.18;;
42714;SDS011;28351;51.480;5.706;2022-09-13T05:56:30;8.88;;;4.72;;
42714;SDS011;28351;51.480;5.706;2022-09-13T05:58:56;7.88;;;5.22;;
42714;SDS011;28351;51.480;5.706;2022-09-13T06:01:23;7.50;;;4.80;;
42714;SDS011;28351;51.480;5.706;2022-09-13T06:03:51;10.32;;;6.28;;
42714;SDS011;28351;51.480;5.706;2022-09-13T06:06:19;8.25;;;5.18;;
42714;SDS011;28351;51.480;5.706;2022-09-13T06:08:45;7.03;;;5.80;;
42714;SDS011;28351;51.480;5.706;2022-09-13T06:11:12;11.05;;;5.75;;
42714;SDS011;28351;51.480;5.706;2022-09-13T06:13:38;10.48;;;5.65;;
42714;SDS011;28351;51.480;5.706;2022-09-13T06:16:06;7.43;;;5.18;;
42714;SDS011;28351;51.480;5.706;2022-09-13T06:18:33;6.67;;;5.37;;
42714;SDS011;28351;51.480;5.706;2022-09-13T06:21:01;10.20;;;5.53;;
42714;SDS011;28351;51.480;5.706;2022-09-13T06:23:31;7.85;;;5.53;;
42714;SDS011;28351;51.480;5.706;2022-09-13T06:26:01;12.70;;;5.70;;
42714;SDS011;28351;51.480;5.706;2022-09-13T06:28:27;10.02;;;6.22;;
42714;SDS011;28351;51.480;5.706;2022-09-13T06:30:58;8.65;;;5.50;;
42714;SDS011;28351;51.480;5.706;2022-09-13T06:33:25;8.98;;;5.35;;
42714;SDS011;28351;51.480;5.706;2022-09-13T06:35:51;11.20;;;5.72;;
42714;SDS011;28351;51.480;5.706;2022-09-13T06:38:16;10.40;;;5.82;;
42714;SDS011;28351;51.480;5.706;2022-09-13T06:40:42;8.10;;;5.50;;
42714;SDS011;28351;51.480;5.706;2022-09-13T06:43:08;10.10;;;5.68;;
42714;SDS011;28351;51.480;5.706;2022-09-13T06:45:35;8.40;;;5.95;;
42714;SDS011;28351;51.480;5.706;2022-09-13T06:48:01;9.70;;;6.07;;
42714;SDS011;28351;51.480;5.706;2022-09-13T06:50:27;8.45;;;5.97;;
42714;SDS011;28351;51.480;5.706;2022-09-13T06:53:01;9.05;;;5.85;;
42714;SDS011;28351;51.480;5.706;2022-09-13T06:55:27;7.85;;;5.68;;
42714;SDS011;28351;51.480;5.706;2022-09-13T06:57:53;8.05;;;5.95;;
42714;SDS011;28351;51.480;5.706;2022-09-13T07:00:19;10.35;;;7.25;;
42714;SDS011;28351;51.480;5.706;2022-09-13T07:02:48;12.45;;;9.30;;
42714;SDS011;28351;51.480;5.706;2022-09-13T07:05:15;11.98;;;8.15;;
42714;SDS011;28351;51.480;5.706;2022-09-13T07:07:42;11.73;;;7.15;;
42714;SDS011;28351;51.480;5.706;2022-09-13T07:10:08;11.98;;;7.80;;
42714;SDS011;28351;51.480;5.706;2022-09-13T07:12:34;12.30;;;8.43;;
42714;SDS011;28351;51.480;5.706;2022-09-13T07:14:59;14.00;;;8.50;;
42714;SDS011;28351;51.480;5.706;2022-09-13T07:17:26;11.25;;;8.52;;
42714;SDS011;28351;51.480;5.706;2022-09-13T07:19:51;12.65;;;8.98;;
42714;SDS011;28351;51.480;5.706;2022-09-13T07:22:17;11.23;;;8.40;;
42714;SDS011;28351;51.480;5.706;2022-09-13T07:24:42;11.68;;;8.68;;
42714;SDS011;28351;51.480;5.706;2022-09-13T07:27:08;12.90;;;9.45;;
42714;SDS011;28351;51.480;5.706;2022-09-13T07:29:34;14.05;;;9.48;;
42714;SDS011;28351;51.480;5.706;2022-09-13T07:31:59;15.98;;;10.48;;
42714;SDS011;28351;51.480;5.706;2022-09-13T07:34:25;15.20;;;9.63;;
42714;SDS011;28351;51.480;5.706;2022-09-13T07:36:51;13.57;;;10.05;;
42714;SDS011;28351;51.480;5.706;2022-09-13T07:39:18;14.95;;;9.95;;
42714;SDS011;28351;51.480;5.706;2022-09-13T07:41:44;16.88;;;10.70;;
42714;SDS011;28351;51.480;5.706;2022-09-13T07:44:13;14.35;;;10.60;;
42714;SDS011;28351;51.480;5.706;2022-09-13T07:46:38;13.30;;;10.88;;
42714;SDS011;28351;51.480;5.706;2022-09-13T07:49:05;15.48;;;10.70;;
42714;SDS011;28351;51.480;5.706;2022-09-13T07:51:32;14.60;;;10.43;;
42714;SDS011;28351;51.480;5.706;2022-09-13T07:54:00;15.88;;;11.25;;
42714;SDS011;28351;51.480;5.706;2022-09-13T07:56:29;15.45;;;11.20;;
42714;SDS011;28351;51.480;5.706;2022-09-13T07:58:57;18.90;;;10.68;;
42714;SDS011;28351;51.480;5.706;2022-09-13T08:01:25;12.70;;;10.07;;
42714;SDS011;28351;51.480;5.706;2022-09-13T08:03:53;17.63;;;10.48;;
42714;SDS011;28351;51.480;5.706;2022-09-13T08:06:24;13.80;;;10.30;;
42714;SDS011;28351;51.480;5.706;2022-09-13T08:08:51;15.65;;;10.57;;
42714;SDS011;28351;51.480;5.706;2022-09-13T08:11:18;16.85;;;10.73;;
42714;SDS011;28351;51.480;5.706;2022-09-13T08:13:46;17.35;;;10.98;;
42714;SDS011;28351;51.480;5.706;2022-09-13T08:16:12;16.67;;;10.73;;
42714;SDS011;28351;51.480;5.706;2022-09-13T08:18:45;16.98;;;11.18;;
42714;SDS011;28351;51.480;5.706;2022-09-13T08:21:12;14.52;;;10.20;;
42714;SDS011;28351;51.480;5.706;2022-09-13T08:23:38;15.70;;;11.27;;
42714;SDS011;28351;51.480;5.706;2022-09-13T08:26:04;15.63;;;10.93;;
42714;SDS011;28351;51.480;5.706;2022-09-13T08:28:32;17.17;;;11.95;;
42714;SDS011;28351;51.480;5.706;2022-09-13T08:31:09;17.80;;;12.45;;
42714;SDS011;28351;51.480;5.706;2022-09-13T08:33:42;17.00;;;12.48;;
42714;SDS011;28351;51.480;5.706;2022-09-13T08:36:09;18.65;;;12.57;;
42714;SDS011;28351;51.480;5.706;2022-09-13T08:38:35;16.65;;;11.60;;
42714;SDS011;28351;51.480;5.706;2022-09-13T08:41:05;19.48;;;12.60;;
42714;SDS011;28351;51.480;5.706;2022-09-13T08:46:25;18.42;;;13.15;;
42714;SDS011;28351;51.480;5.706;2022-09-13T08:49:03;20.95;;;13.10;;
42714;SDS011;28351;51.480;5.706;2022-09-13T08:53:57;22.83;;;14.75;;
42714;SDS011;28351;51.480;5.706;2022-09-13T08:56:35;19.92;;;14.00;;
42714;SDS011;28351;51.480;5.706;2022-09-13T09:02:07;21.80;;;14.70;;
42714;SDS011;28351;51.480;5.706;2022-09-13T09:04:36;21.88;;;15.10;;
42714;SDS011;28351;51.480;5.706;2022-09-13T09:07:22;21.98;;;15.70;;
42714;SDS011;28351;51.480;5.706;2022-09-13T09:15:26;23.15;;;17.17;;
42714;SDS011;28351;51.480;5.706;2022-09-13T09:17:56;22.48;;;16.10;;
42714;SDS011;28351;51.480;5.706;2022-09-13T09:20:49;23.15;;;15.30;;
42714;SDS011;28351;51.480;5.706;2022-09-13T09:23:18;26.45;;;16.23;;
42714;SDS011;28351;51.480;5.706;2022-09-13T09:25:45;24.50;;;16.70;;
42714;SDS011;28351;51.480;5.706;2022-09-13T09:28:13;23.65;;;16.30;;
42714;SDS011;28351;51.480;5.706;2022-09-13T09:36:15;20.60;;;16.05;;
42714;SDS011;28351;51.480;5.706;2022-09-13T09:38:59;20.30;;;14.98;;
42714;SDS011;28351;51.480;5.706;2022-09-13T09:41:31;20.00;;;14.82;;
42714;SDS011;28351;51.480;5.706;2022-09-13T09:44:01;18.83;;;14.20;;
42714;SDS011;28351;51.480;5.706;2022-09-13T09:47:06;19.13;;;14.25;;
42714;SDS011;28351;51.480;5.706;2022-09-13T09:49:42;23.35;;;15.82;;
42714;SDS011;28351;51.480;5.706;2022-09-13T09:52:43;21.45;;;15.25;;
42714;SDS011;28351;51.480;5.706;2022-09-13T09:55:29;21.58;;;16.08;;
42714;SDS011;28351;51.480;5.706;2022-09-13T09:58:09;21.88;;;15.68;;
42714;SDS011;28351;51.480;5.706;2022-09-13T10:00:37;25.45;;;15.95;;
42714;SDS011;28351;51.480;5.706;2022-09-13T10:03:16;17.08;;;12.10;;
42714;SDS011;28351;51.480;5.706;2022-09-13T10:05:43;19.92;;;13.10;;
42714;SDS011;28351;51.480;5.706;2022-09-13T10:08:23;22.02;;;13.88;;
42714;SDS011;28351;51.480;5.706;2022-09-13T10:10:53;18.75;;;13.60;;
42714;SDS011;28351;51.480;5.706;2022-09-13T10:13:21;16.70;;;11.50;;
42714;SDS011;28351;51.480;5.706;2022-09-13T10:15:53;20.95;;;13.65;;
42714;SDS011;28351;51.480;5.706;2022-09-13T10:18:23;19.02;;;13.23;;
42714;SDS011;28351;51.480;5.706;2022-09-13T10:23:30;19.25;;;13.18;;
42714;SDS011;28351;51.480;5.706;2022-09-13T10:26:01;19.40;;;13.45;;
42714;SDS011;28351;51.480;5.706;2022-09-13T10:28:34;23.92;;;14.45;;
42714;SDS011;28351;51.480;5.706;2022-09-13T10:31:10;17.73;;;12.13;;
42714;SDS011;28351;51.480;5.706;2022-09-13T10:33:39;15.57;;;12.35;;
42714;SDS011;28351;51.480;5.706;2022-09-13T10:36:15;19.42;;;13.50;;
42714;SDS011;28351;51.480;5.706;2022-09-13T10:39:33;22.30;;;14.40;;
42714;SDS011;28351;51.480;5.706;2022-09-13T10:41:46;18.42;;;13.65;;
42714;SDS011;28351;51.480;5.706;2022-09-13T10:44:45;18.52;;;12.85;;
42714;SDS011;28351;51.480;5.706;2022-09-13T10:47:21;20.70;;;14.25;;
42714;SDS011;28351;51.480;5.706;2022-09-13T10:49:51;18.05;;;13.43;;
42714;SDS011;28351;51.480;5.706;2022-09-13T10:52:26;17.55;;;12.60;;
42714;SDS011;28351;51.480;5.706;2022-09-13T10:54:54;18.50;;;13.00;;
42714;SDS011;28351;51.480;5.706;2022-09-13T10:57:40;21.73;;;14.02;;
42714;SDS011;28351;51.480;5.706;2022-09-13T11:00:08;18.58;;;13.52;;
42714;SDS011;28351;51.480;5.706;2022-09-13T11:03:04;16.88;;;12.10;;
42714;SDS011;28351;51.480;5.706;2022-09-13T11:08:33;15.65;;;11.75;;
42714;SDS011;28351;51.480;5.706;2022-09-13T11:11:29;18.17;;;14.02;;
42714;SDS011;28351;51.480;5.706;2022-09-13T11:28:38;16.97;;;13.00;;
42714;SDS011;28351;51.480;5.706;2022-09-13T11:31:00;16.63;;;12.13;;
42714;SDS011;28351;51.480;5.706;2022-09-13T11:36:35;14.70;;;11.18;;
42714;SDS011;28351;51.480;5.706;2022-09-13T11:53:25;11.18;;;8.93;;
42714;SDS011;28351;51.480;5.706;2022-09-13T11:56:04;11.45;;;8.73;;
42714;SDS011;28351;51.480;5.706;2022-09-13T11:58:36;11.30;;;9.07;;
42714;SDS011;28351;51.480;5.706;2022-09-13T12:01:09;11.75;;;9.40;;
42714;SDS011;28351;51.480;5.706;2022-09-13T12:09:22;9.43;;;7.35;;
42714;SDS011;28351;51.480;5.706;2022-09-13T12:17:03;9.23;;;5.72;;
42714;SDS011;28351;51.480;5.706;2022-09-13T12:19:43;9.63;;;6.85;;
42714;SDS011;28351;51.480;5.706;2022-09-13T12:22:13;9.80;;;5.93;;
42714;SDS011;28351;51.480;5.706;2022-09-13T12:24:42;7.78;;;4.95;;
42714;SDS011;28351;51.480;5.706;2022-09-13T12:29:52;6.68;;;5.45;;
42714;SDS011;28351;51.480;5.706;2022-09-13T12:32:19;6.45;;;4.68;;
42714;SDS011;28351;51.480;5.706;2022-09-13T12:46:16;4.50;;;3.50;;
42714;SDS011;28351;51.480;5.706;2022-09-13T12:49:22;5.13;;;3.50;;
42714;SDS011;28351;51.480;5.706;2022-09-13T12:52:05;5.82;;;3.08;;
42714;SDS011;28351;51.480;5.706;2022-09-13T13:00:26;7.68;;;4.40;;
42714;SDS011;28351;51.480;5.706;2022-09-13T13:02:59;4.25;;;3.72;;
42714;SDS011;28351;51.480;5.706;2022-09-13T13:07:57;6.47;;;4.93;;
42714;SDS011;28351;51.480;5.706;2022-09-13T13:10:28;5.35;;;4.55;;
42714;SDS011;28351;51.480;5.706;2022-09-13T13:13:07;7.60;;;5.18;;
42714;SDS011;28351;51.480;5.706;2022-09-13T13:18:22;7.28;;;4.70;;
42714;SDS011;28351;51.480;5.706;2022-09-13T13:33:59;6.22;;;3.65;;
42714;SDS011;28351;51.480;5.706;2022-09-13T13:57:23;5.93;;;5.00;;
42714;SDS011;28351;51.480;5.706;2022-09-13T14:00:05;5.80;;;4.50;;
42714;SDS011;28351;51.480;5.706;2022-09-13T14:11:25;9.43;;;5.60;;
42714;SDS011;28351;51.480;5.706;2022-09-13T14:17:12;5.20;;;4.30;;
42714;SDS011;28351;51.480;5.706;2022-09-13T14:22:40;6.82;;;4.93;;
42714;SDS011;28351;51.480;5.706;2022-09-13T14:25:17;6.15;;;5.03;;
42714;SDS011;28351;51.480;5.706;2022-09-13T14:27:48;5.88;;;4.25;;
42714;SDS011;28351;51.480;5.706;2022-09-13T14:30:22;7.35;;;3.90;;
42714;SDS011;28351;51.480;5.706;2022-09-13T14:32:52;4.93;;;3.83;;
42714;SDS011;28351;51.480;5.706;2022-09-13T14:35:32;5.72;;;4.22;;
42714;SDS011;28351;51.480;5.706;2022-09-13T14:40:40;8.35;;;5.47;;
42714;SDS011;28351;51.480;5.706;2022-09-13T14:43:13;7.95;;;5.05;;
42714;SDS011;28351;51.480;5.706;2022-09-13T14:45:40;7.63;;;5.20;;
42714;SDS011;28351;51.480;5.706;2022-09-13T14:48:13;6.40;;;4.55;;
42714;SDS011;28351;51.480;5.706;2022-09-13T14:53:21;8.05;;;4.35;;
42714;SDS011;28351;51.480;5.706;2022-09-13T14:55:51;10.75;;;5.60;;
42714;SDS011;28351;51.480;5.706;2022-09-13T14:58:24;9.52;;;6.38;;
42714;SDS011;28351;51.480;5.706;2022-09-13T15:01:01;10.27;;;8.07;;
42714;SDS011;28351;51.480;5.706;2022-09-13T15:03:30;10.27;;;7.55;;
42714;SDS011;28351;51.480;5.706;2022-09-13T15:05:57;8.32;;;6.43;;
42714;SDS011;28351;51.480;5.706;2022-09-13T15:10:56;10.35;;;6.18;;
42714;SDS011;28351;51.480;5.706;2022-09-13T15:13:22;8.55;;;6.45;;
42714;SDS011;28351;51.480;5.706;2022-09-13T15:15:48;9.15;;;5.72;;
42714;SDS011;28351;51.480;5.706;2022-09-13T15:20:44;7.00;;;4.85;;
42714;SDS011;28351;51.480;5.706;2022-09-13T15:23:32;7.78;;;5.85;;
42714;SDS011;28351;51.480;5.706;2022-09-13T15:31:23;7.68;;;4.90;;
42714;SDS011;28351;51.480;5.706;2022-09-13T15:36:40;8.85;;;4.85;;
42714;SDS011;28351;51.480;5.706;2022-09-13T15:41:33;6.60;;;4.55;;
42714;SDS011;28351;51.480;5.706;2022-09-13T15:44:04;5.45;;;4.45;;
42714;SDS011;28351;51.480;5.706;2022-09-13T15:46:31;3.70;;;3.40;;
42714;SDS011;28351;51.480;5.706;2022-09-13T15:49:02;5.93;;;4.15;;
42714;SDS011;28351;51.480;5.706;2022-09-13T15:51:32;5.55;;;3.90;;
42714;SDS011;28351;51.480;5.706;2022-09-13T15:53:59;5.80;;;3.73;;
42714;SDS011;28351;51.480;5.706;2022-09-13T15:56:30;4.53;;;3.33;;
42714;SDS011;28351;51.480;5.706;2022-09-13T15:58:58;4.38;;;3.50;;
42714;SDS011;28351;51.480;5.706;2022-09-13T16:01:23;3.92;;;3.00;;
42714;SDS011;28351;51.480;5.706;2022-09-13T16:03:51;4.67;;;3.60;;
42714;SDS011;28351;51.480;5.706;2022-09-13T16:06:17;4.95;;;3.17;;
42714;SDS011;28351;51.480;5.706;2022-09-13T16:08:43;4.07;;;2.83;;
42714;SDS011;28351;51.480;5.706;2022-09-13T16:11:08;5.72;;;3.28;;
42714;SDS011;28351;51.480;5.706;2022-09-13T16:13:34;4.72;;;3.10;;
42714;SDS011;28351;51.480;5.706;2022-09-13T16:16:00;3.20;;;2.70;;
42714;SDS011;28351;51.480;5.706;2022-09-13T16:18:26;7.05;;;3.40;;
42714;SDS011;28351;51.480;5.706;2022-09-13T16:27:43;3.65;;;3.15;;
42714;SDS011;28351;51.480;5.706;2022-09-13T16:30:19;3.80;;;2.35;;
42714;SDS011;28351;51.480;5.706;2022-09-13T16:32:46;4.35;;;2.80;;
42714;SDS011;28351;51.480;5.706;2022-09-13T16:35:12;3.47;;;2.50;;
42714;SDS011;28351;51.480;5.706;2022-09-13T16:40:07;2.85;;;2.58;;
42714;SDS011;28351;51.480;5.706;2022-09-13T16:42:34;4.75;;;2.40;;
42714;SDS011;28351;51.480;5.706;2022-09-13T16:45:00;3.85;;;2.50;;
42714;SDS011;28351;51.480;5.706;2022-09-13T16:47:26;5.18;;;3.25;;
42714;SDS011;28351;51.480;5.706;2022-09-13T16:49:51;4.15;;;3.42;;
42714;SDS011;28351;51.480;5.706;2022-09-13T16:52:18;3.45;;;2.47;;
42714;SDS011;28351;51.480;5.706;2022-09-13T16:54:43;3.92;;;2.50;;
42714;SDS011;28351;51.480;5.706;2022-09-13T16:57:13;3.15;;;2.50;;
42714;SDS011;28351;51.480;5.706;2022-09-13T16:59:39;3.05;;;2.63;;
42714;SDS011;28351;51.480;5.706;2022-09-13T17:02:10;2.78;;;2.58;;
42714;SDS011;28351;51.480;5.706;2022-09-13T17:04:36;4.30;;;2.70;;
42714;SDS011;28351;51.480;5.706;2022-09-13T17:07:02;3.35;;;2.80;;
42714;SDS011;28351;51.480;5.706;2022-09-13T17:09:29;4.03;;;3.40;;
42714;SDS011;28351;51.480;5.706;2022-09-13T17:11:56;4.15;;;3.10;;
42714;SDS011;28351;51.480;5.706;2022-09-13T17:14:22;3.67;;;2.70;;
42714;SDS011;28351;51.480;5.706;2022-09-13T17:16:56;5.05;;;2.80;;
42714;SDS011;28351;51.480;5.706;2022-09-13T17:19:24;5.55;;;2.80;;
42714;SDS011;28351;51.480;5.706;2022-09-13T17:21:54;3.17;;;2.40;;
42714;SDS011;28351;51.480;5.706;2022-09-13T17:24:22;3.60;;;3.15;;
42714;SDS011;28351;51.480;5.706;2022-09-13T17:26:48;5.00;;;3.00;;
42714;SDS011;28351;51.480;5.706;2022-09-13T17:29:14;3.35;;;3.05;;
42714;SDS011;28351;51.480;5.706;2022-09-13T17:31:40;5.25;;;3.08;;
42714;SDS011;28351;51.480;5.706;2022-09-13T17:34:07;5.55;;;2.90;;
42714;SDS011;28351;51.480;5.706;2022-09-13T17:36:40;3.60;;;2.60;;
42714;SDS011;28351;51.480;5.706;2022-09-13T17:39:06;3.10;;;2.78;;
42714;SDS011;28351;51.480;5.706;2022-09-13T17:41:33;3.17;;;2.58;;
42714;SDS011;28351;51.480;5.706;2022-09-13T17:44:00;4.82;;;3.08;;
42714;SDS011;28351;51.480;5.706;2022-09-13T17:46:27;4.00;;;3.40;;
42714;SDS011;28351;51.480;5.706;2022-09-13T17:48:54;3.67;;;2.67;;
42714;SDS011;28351;51.480;5.706;2022-09-13T17:51:22;5.03;;;3.20;;
42714;SDS011;28351;51.480;5.706;2022-09-13T17:53:51;4.85;;;2.83;;
42714;SDS011;28351;51.480;5.706;2022-09-13T17:56:19;5.38;;;2.53;;
42714;SDS011;28351;51.480;5.706;2022-09-13T17:58:47;3.72;;;2.42;;
42714;SDS011;28351;51.480;5.706;2022-09-13T18:01:16;4.57;;;2.50;;
42714;SDS011;28351;51.480;5.706;2022-09-13T18:03:42;3.10;;;2.65;;
42714;SDS011;28351;51.480;5.706;2022-09-13T18:06:08;4.13;;;2.50;;
42714;SDS011;28351;51.480;5.706;2022-09-13T18:08:35;6.90;;;2.90;;
42714;SDS011;28351;51.480;5.706;2022-09-13T18:11:06;5.63;;;2.38;;
42714;SDS011;28351;51.480;5.706;2022-09-13T18:13:33;5.72;;;2.60;;
42714;SDS011;28351;51.480;5.706;2022-09-13T18:16:02;8.80;;;2.60;;
42714;SDS011;28351;51.480;5.706;2022-09-13T18:18:30;7.82;;;2.38;;
42714;SDS011;28351;51.480;5.706;2022-09-13T18:20:56;4.53;;;2.50;;
42714;SDS011;28351;51.480;5.706;2022-09-13T18:23:22;4.35;;;2.90;;
42714;SDS011;28351;51.480;5.706;2022-09-13T18:25:58;5.65;;;2.60;;
42714;SDS011;28351;51.480;5.706;2022-09-13T18:28:31;6.18;;;2.58;;
42714;SDS011;28351;51.480;5.706;2022-09-13T18:30:58;5.00;;;3.40;;
42714;SDS011;28351;51.480;5.706;2022-09-13T18:33:25;5.13;;;2.93;;
42714;SDS011;28351;51.480;5.706;2022-09-13T18:36:02;7.05;;;3.08;;
42714;SDS011;28351;51.480;5.706;2022-09-13T18:38:45;3.50;;;2.70;;
42714;SDS011;28351;51.480;5.706;2022-09-13T18:43:45;4.60;;;2.80;;
42714;SDS011;28351;51.480;5.706;2022-09-13T18:46:20;4.40;;;3.00;;
42714;SDS011;28351;51.480;5.706;2022-09-13T18:48:48;7.13;;;3.38;;
42714;SDS011;28351;51.480;5.706;2022-09-13T18:51:20;5.35;;;3.42;;
42714;SDS011;28351;51.480;5.706;2022-09-13T18:53:47;5.60;;;3.40;;